^^
Atglen Weather Station Historical Data
 
Daily Summary for January 16, 2018 Units:  English    Metric   Both
Daily Weekly Monthly Yearly Custom
  Current: High: Low: Average:
Temperature: 27.1 °F 28.0 °F 26.6 °F 27.5 °F
Dew Point: 25.7 °F 25.7 °F 24.6 °F 25.2 °F
Humidity: 94% 94% 87% 91%
Wind Speed: 0.0mph 6.0mph 0.0mph 1.2mph
Wind Gust: 2.0mph 8.0mph - -
WindCalm - - SE
Pressure: 30.48 in 30.49 in 30.46 in -
Precipitation: 0.00 in      
Historical Graphs
 
 
Tabular Data for January 16, 2018
Time Temperature Dew Point Pressure Wind Wind Speed Wind Gust Humidity Rainfall Rate (Hourly) solar
00:02 28.0 °F 24.6 °F 30.49 in Calm     87% 0.00 in meteobridge W/m2
00:08 28.0 °F 24.6 °F 30.49 in Calm     87% 0.00 in meteobridge W/m2
00:15 28.0 °F 24.6 °F 30.49 in SE 0.9 mph 3.0 mph 87% 0.00 in meteobridge W/m2
00:20 28.0 °F 24.6 °F 30.49 in Calm     87% 0.00 in meteobridge W/m2
00:33 28.0 °F 24.6 °F 30.47 in SE 0.9 mph 2.0 mph 87% 0.00 in meteobridge W/m2
00:38 28.0 °F 25.0 °F 30.47 in SE 2.0 mph 3.0 mph 88% 0.00 in meteobridge W/m2
00:46 28.0 °F 25.0 °F 30.47 in SE 2.0 mph 4.0 mph 88% 0.00 in meteobridge W/m2
00:51 28.0 °F 25.0 °F 30.47 in SSE 4.0 mph 4.0 mph 88% 0.00 in meteobridge W/m2
00:56 28.0 °F 25.0 °F 30.46 in SE 2.9 mph 3.0 mph 88% 0.00 in meteobridge W/m2
01:01 28.0 °F 25.0 °F 30.47 in ESE 2.9 mph 3.0 mph 88% 0.00 in meteobridge W/m2
01:06 28.0 °F 25.0 °F 30.46 in SE 2.9 mph 4.0 mph 88% 0.00 in meteobridge W/m2
01:11 28.0 °F 25.0 °F 30.46 in ESE 0.9 mph 4.0 mph 88% 0.00 in meteobridge W/m2
01:16 28.0 °F 25.0 °F 30.47 in SE 2.9 mph 8.0 mph 88% 0.00 in meteobridge W/m2
01:24 28.0 °F 25.0 °F 30.47 in SE 6.0 mph 7.0 mph 88% 0.00 in meteobridge W/m2
01:29 27.9 °F 24.8 °F 30.47 in SSE 4.0 mph 5.0 mph 88% 0.00 in meteobridge W/m2
01:34 27.9 °F 24.8 °F 30.47 in ESE 2.9 mph 3.0 mph 88% 0.00 in meteobridge W/m2
01:41 27.9 °F 24.8 °F 30.47 in SE 4.0 mph 7.0 mph 88% 0.00 in meteobridge W/m2
01:46 27.9 °F 25.0 °F 30.47 in ESE 0.9 mph 4.0 mph 89% 0.00 in meteobridge W/m2
01:51 27.9 °F 25.0 °F 30.47 in SSE 0.9 mph 7.0 mph 89% 0.00 in meteobridge W/m2
01:56 27.9 °F 25.0 °F 30.47 in East 4.0 mph 7.0 mph 89% 0.00 in meteobridge W/m2
02:01 27.9 °F 25.0 °F 30.48 in SSE 0.9 mph 2.0 mph 89% 0.00 in meteobridge W/m2
02:06 27.9 °F 25.0 °F 30.48 in ESE 0.9 mph 2.0 mph 89% 0.00 in meteobridge W/m2
02:13 27.9 °F 25.0 °F 30.48 in ESE 0.9 mph 2.0 mph 89% 0.00 in meteobridge W/m2
02:20 27.9 °F 25.0 °F 30.47 in ESE 4.0 mph 4.0 mph 89% 0.00 in meteobridge W/m2
02:37 27.7 °F 25.3 °F 30.47 in Calm   1.0 mph 91% 0.00 in meteobridge W/m2
02:46 27.5 °F 25.5 °F 30.47 in ESE 2.0 mph 2.0 mph 92% 0.00 in meteobridge W/m2
02:56 27.3 °F 25.3 °F 30.47 in Calm     92% 0.00 in meteobridge W/m2
03:04 27.3 °F 25.3 °F 30.47 in Calm   3.0 mph 92% 0.00 in meteobridge W/m2
03:13 27.3 °F 25.5 °F 30.47 in Calm     93% 0.00 in meteobridge W/m2
03:18 27.1 °F 25.3 °F 30.47 in Calm     93% 0.00 in meteobridge W/m2
03:23 27.1 °F 25.3 °F 30.47 in Calm     93% 0.00 in meteobridge W/m2
03:32 27.1 °F 25.7 °F 30.47 in Calm   2.0 mph 94% 0.00 in meteobridge W/m2
03:37 27.1 °F 25.3 °F 30.47 in Calm     93% 0.00 in meteobridge W/m2
03:47 27.1 °F 25.7 °F 30.47 in Calm     94% 0.00 in meteobridge W/m2
03:56 27.0 °F 25.5 °F 30.46 in ESE 2.0 mph 3.0 mph 94% 0.00 in meteobridge W/m2
04:04 26.8 °F 25.3 °F 30.46 in ESE 0.9 mph 3.0 mph 94% 0.00 in meteobridge W/m2
04:13 26.8 °F 25.3 °F 30.46 in ESE 0.9 mph 4.0 mph 94% 0.00 in meteobridge W/m2
04:18 26.8 °F 25.3 °F 30.46 in ESE 2.9 mph 3.0 mph 94% 0.00 in meteobridge W/m2
04:27 26.6 °F 24.8 °F 30.46 in Calm   3.0 mph 93% 0.00 in meteobridge W/m2
04:32 26.8 °F 25.3 °F 30.46 in Calm   1.0 mph 94% 0.00 in meteobridge W/m2
04:37 26.8 °F 25.3 °F 30.46 in Calm     94% 0.00 in meteobridge W/m2
04:42 27.0 °F 25.5 °F 30.46 in Calm     94% 0.00 in meteobridge W/m2
04:47 27.0 °F 25.5 °F 30.46 in Calm     94% 0.00 in meteobridge W/m2
04:53 27.0 °F 25.5 °F 30.46 in ESE 0.9 mph 2.0 mph 94% 0.00 in meteobridge W/m2
05:02 27.0 °F 25.5 °F 30.47 in Calm     94% 0.00 in meteobridge W/m2
05:07 27.0 °F 25.5 °F 30.47 in Calm     94% 0.00 in meteobridge W/m2
05:12 27.1 °F 25.7 °F 30.47 in Calm   1.0 mph 94% 0.00 in meteobridge W/m2
05:17 27.1 °F 25.7 °F 30.47 in Calm     94% 0.00 in meteobridge W/m2
05:22 27.1 °F 25.3 °F 30.47 in Calm     93% 0.00 in meteobridge W/m2
05:30 27.1 °F 25.3 °F 30.47 in Calm     93% 0.00 in meteobridge W/m2
05:35 27.1 °F 25.7 °F 30.48 in ESE 0.9 mph 1.0 mph 94% 0.00 in meteobridge W/m2
05:52 27.1 °F 25.7 °F 30.48 in Calm   2.0 mph 94% 0.00 in meteobridge W/m2
Atglen Borough, Pennsylvania, USA
Compliments of Weather Underground - 2.25 mb